METAR Data
IDs: Format: Raw Decoded Include TAF

Data at: 0431 UTC 26 Apr 2019

METAR for:KAUN (Auburn Muni, CA, US)
Text:KAUN 260415Z AUTO 13003KT 10SM CLR 23/13 A2995 RMK A01
Temperature: 23.0°C ( 73°F)
Dewpoint: 13.0°C ( 55°F) [RH = 53%]
Pressure (altimeter):29.95 inches Hg (1014.3 mb)
Winds:from the SE (130 degrees) at 3 MPH (3 knots; 1.5 m/s)
Visibility:10 or more sm (16+ km)
Ceiling:at least 12,000 feet AGL
Clouds:sky clear below 12,000 feet AGL
QC Flag:automated observation with no human augmentation